Norfolk, Virginia
Current Conditions -  °F | °C
As of 7:51 AM on Thursday 23 Oct 2014 (Local Time) from KORF Reporting Station
Overcast Overcast  
Wind Chill: 54°   Ceiling: 4300
Heat Index: 54°   Visibility: 10mi
Dew Point: 42°   Wind: 8mph
Humidity: 64%   Direction: 310°NW
Pressure: 29.89"   Gusts: NA
Location:  36.85°N, 76.28°W
Report Text: KORF 231151Z AUTO 31007KT 260V010 10SM OVC043 12/06 A2989 RMK AO2 SLP122 70005 T01220056 10128 20117 51010 TSNO
Loading
Personal Weather Stations






























Interactive Weather Map New forecast layout! Learn more

10-Day Weather Forecast

Advertisements
Track Severe Weather on mobile